createdAt,value
2018-11-25T00:00:32.214Z,2.70
2018-11-25T00:01:36.349Z,2.70
2018-11-25T00:02:40.441Z,2.70
2018-11-25T00:03:44.609Z,2.70
2018-11-25T00:04:48.666Z,2.70
2018-11-25T00:05:52.679Z,2.70
2018-11-25T00:06:56.724Z,2.70
2018-11-25T00:08:00.832Z,2.70
2018-11-25T00:09:07.132Z,2.70
2018-11-25T00:10:11.254Z,2.70
2018-11-25T00:11:15.968Z,2.70
2018-11-25T00:12:20.395Z,2.70
2018-11-25T00:13:24.413Z,2.70
2018-11-25T00:14:28.464Z,2.80
2018-11-25T00:15:32.576Z,2.70
2018-11-25T00:16:36.737Z,2.70
2018-11-25T00:17:40.869Z,2.70
2018-11-25T00:18:44.999Z,2.70
2018-11-25T00:19:49.132Z,2.70
2018-11-25T00:20:53.166Z,2.70
2018-11-25T00:21:57.308Z,2.80
2018-11-25T00:23:01.425Z,2.70
2018-11-25T00:24:05.972Z,2.70
2018-11-25T00:25:11.388Z,2.70
2018-11-25T00:26:15.444Z,2.60
2018-11-25T00:27:19.596Z,2.70
2018-11-25T00:28:23.703Z,2.70
2018-11-25T00:29:27.867Z,2.70
2018-11-25T00:30:31.921Z,2.70
2018-11-25T00:31:35.954Z,2.70
2018-11-25T00:32:40.064Z,2.70
2018-11-25T00:33:44.107Z,2.70
2018-11-25T00:34:48.227Z,2.70
2018-11-25T00:35:52.319Z,2.70
2018-11-25T00:36:56.396Z,2.70
2018-11-25T00:38:00.595Z,2.70
2018-11-25T00:39:06.168Z,2.70
2018-11-25T00:40:11.731Z,2.70
2018-11-25T00:41:15.797Z,2.70
2018-11-25T00:42:19.911Z,2.70
2018-11-25T00:43:24.023Z,2.60
2018-11-25T00:44:28.076Z,2.60
2018-11-25T00:45:32.112Z,2.70
2018-11-25T00:46:36.251Z,2.70
2018-11-25T00:47:40.483Z,2.60
2018-11-25T00:48:44.468Z,2.70
2018-11-25T00:49:48.612Z,2.70
2018-11-25T00:50:52.638Z,2.70
2018-11-25T00:51:56.780Z,2.70
2018-11-25T00:53:00.852Z,2.70
2018-11-25T00:54:04.997Z,2.70
2018-11-25T00:55:13.532Z,2.70
2018-11-25T00:56:17.625Z,2.70
2018-11-25T00:57:21.638Z,2.70
2018-11-25T00:58:25.778Z,2.70
2018-11-25T00:59:29.854Z,2.70
2018-11-25T01:00:33.952Z,2.70
2018-11-25T01:01:38.117Z,2.70
2018-11-25T01:02:42.295Z,2.70
2018-11-25T01:03:46.329Z,2.70
2018-11-25T01:04:50.365Z,2.70
2018-11-25T01:05:54.412Z,2.70
2018-11-25T01:06:58.576Z,2.60
2018-11-25T01:08:02.616Z,2.60
2018-11-25T01:09:09.092Z,2.60
2018-11-25T01:10:14.490Z,2.60
2018-11-25T01:11:18.581Z,2.50
2018-11-25T01:12:22.778Z,2.50
2018-11-25T01:13:26.819Z,2.60
2018-11-25T01:14:30.851Z,2.50
2018-11-25T01:15:34.909Z,2.50
2018-11-25T01:16:38.895Z,2.50
2018-11-25T01:17:43.119Z,2.50
2018-11-25T01:18:47.600Z,2.50
2018-11-25T01:19:51.647Z,2.50
2018-11-25T01:20:55.731Z,2.50
2018-11-25T01:21:59.831Z,2.50
2018-11-25T01:23:04.154Z,2.50
2018-11-25T01:24:08.231Z,2.50
2018-11-25T01:25:12.702Z,2.40
2018-11-25T01:26:16.711Z,2.40
2018-11-25T01:27:20.785Z,2.40
2018-11-25T01:28:24.925Z,2.40
2018-11-25T01:29:28.985Z,2.40
2018-11-25T01:30:33.036Z,2.30
2018-11-25T01:31:37.178Z,2.30
2018-11-25T01:32:41.327Z,2.30
2018-11-25T01:33:45.466Z,2.30
2018-11-25T01:34:49.543Z,2.30
2018-11-25T01:35:53.641Z,2.30
2018-11-25T01:36:57.681Z,2.30
2018-11-25T01:38:01.805Z,2.30
2018-11-25T01:39:07.500Z,2.20
2018-11-25T01:40:13.701Z,2.20
2018-11-25T01:41:17.833Z,2.30
2018-11-25T01:42:27.220Z,2.30
2018-11-25T01:43:31.295Z,2.20
2018-11-25T01:44:35.336Z,2.20
2018-11-25T01:45:39.498Z,2.20
2018-11-25T01:46:43.608Z,2.20
2018-11-25T01:47:47.709Z,2.20
2018-11-25T01:48:51.808Z,2.20
2018-11-25T01:49:55.890Z,2.20
2018-11-25T01:51:00.038Z,2.10
2018-11-25T01:52:04.201Z,2.10
2018-11-25T01:53:08.269Z,2.10
2018-11-25T01:54:12.381Z,2.20
2018-11-25T01:55:17.515Z,2.10
2018-11-25T01:56:21.611Z,2.20
2018-11-25T01:57:25.668Z,2.10
2018-11-25T01:58:29.619Z,2.10
2018-11-25T01:59:33.628Z,2.10
2018-11-25T02:00:38.673Z,2.10
2018-11-25T02:01:42.687Z,2.10
2018-11-25T02:02:46.867Z,2.10
2018-11-25T02:03:50.990Z,2.20
2018-11-25T02:04:55.050Z,2.20
2018-11-25T02:05:59.082Z,2.20
2018-11-25T02:07:03.046Z,2.20
2018-11-25T02:08:07.216Z,2.20
2018-11-25T02:09:11.352Z,2.10
2018-11-25T02:10:22.427Z,2.10
2018-11-25T02:11:26.501Z,2.10
2018-11-25T02:12:30.590Z,2.10
2018-11-25T02:13:34.701Z,2.10
2018-11-25T02:14:38.768Z,2.00
2018-11-25T02:15:43.106Z,2.00
2018-11-25T02:16:47.064Z,2.00
2018-11-25T02:17:51.176Z,2.10
2018-11-25T02:18:55.297Z,2.10
2018-11-25T02:19:59.351Z,2.00
2018-11-25T02:21:03.511Z,2.10
2018-11-25T02:22:07.648Z,2.10
2018-11-25T02:23:11.776Z,2.10
2018-11-25T02:24:15.786Z,2.00
2018-11-25T02:25:19.819Z,2.00
2018-11-25T02:26:23.784Z,2.10
2018-11-25T02:27:27.894Z,2.00
2018-11-25T02:28:32.107Z,2.00
2018-11-25T02:29:36.268Z,2.00
2018-11-25T02:30:40.416Z,2.00
2018-11-25T02:31:44.453Z,2.00
2018-11-25T02:32:48.543Z,2.00
2018-11-25T02:33:52.866Z,2.00
2018-11-25T02:34:57.030Z,2.00
2018-11-25T02:36:01.064Z,2.00
2018-11-25T02:37:05.102Z,2.00
2018-11-25T02:38:14.449Z,2.00
2018-11-25T02:39:18.462Z,2.00
2018-11-25T02:40:22.519Z,2.00
2018-11-25T02:41:26.496Z,1.90
2018-11-25T02:42:30.596Z,1.90
2018-11-25T02:43:34.693Z,1.90
2018-11-25T02:44:38.730Z,1.90
2018-11-25T02:45:42.733Z,1.90
2018-11-25T02:46:46.740Z,1.90
2018-11-25T02:47:50.877Z,1.90
2018-11-25T02:48:54.917Z,2.00
2018-11-25T02:49:58.881Z,2.00
2018-11-25T02:51:02.944Z,2.10
2018-11-25T02:52:06.962Z,2.10
2018-11-25T02:53:11.002Z,2.10
2018-11-25T02:54:15.205Z,2.00
2018-11-25T02:55:22.416Z,1.90
2018-11-25T02:56:26.580Z,1.90
2018-11-25T02:57:30.522Z,1.90
2018-11-25T02:58:34.576Z,1.80
2018-11-25T02:59:38.711Z,1.80
2018-11-25T03:00:46.693Z,1.80
2018-11-25T03:01:50.747Z,1.70
2018-11-25T03:02:54.744Z,1.70
2018-11-25T03:03:58.832Z,1.70
2018-11-25T03:05:02.913Z,1.70
2018-11-25T03:06:07.080Z,1.70
2018-11-25T03:07:11.096Z,1.70
2018-11-25T03:08:15.149Z,1.60
2018-11-25T03:09:19.301Z,1.60
2018-11-25T03:10:23.364Z,1.60
2018-11-25T03:11:27.363Z,1.60
2018-11-25T03:12:31.332Z,1.60
2018-11-25T03:13:35.563Z,1.60
2018-11-25T03:14:40.555Z,1.60
2018-11-25T03:15:44.633Z,1.60
2018-11-25T03:16:49.208Z,1.60
2018-11-25T03:17:53.247Z,1.60
2018-11-25T03:18:57.306Z,1.60
2018-11-25T03:20:01.367Z,1.50
2018-11-25T03:21:05.453Z,1.50
2018-11-25T03:22:10.615Z,1.50
2018-11-25T03:23:14.701Z,1.50
2018-11-25T03:24:18.803Z,1.50
2018-11-25T03:25:29.749Z,1.50
2018-11-25T03:26:33.822Z,1.40
2018-11-25T03:27:38.118Z,1.40
2018-11-25T03:28:42.082Z,1.40
2018-11-25T03:29:47.112Z,1.40
2018-11-25T03:30:51.250Z,1.50
2018-11-25T03:31:55.330Z,1.40
2018-11-25T03:32:59.456Z,1.50
2018-11-25T03:34:03.409Z,1.40
2018-11-25T03:35:08.464Z,1.40
2018-11-25T03:36:12.444Z,1.50
2018-11-25T03:37:16.431Z,1.50
2018-11-25T03:38:20.448Z,1.40
2018-11-25T03:39:24.523Z,1.50
2018-11-25T03:40:28.638Z,1.50
2018-11-25T03:41:32.683Z,1.50
2018-11-25T03:42:37.767Z,1.50
2018-11-25T03:43:41.824Z,1.50
2018-11-25T03:44:45.974Z,1.40
2018-11-25T03:45:51.896Z,1.50
2018-11-25T03:46:55.932Z,1.50
2018-11-25T03:48:03.053Z,1.50
2018-11-25T03:49:07.123Z,1.40
2018-11-25T03:50:12.005Z,1.40
2018-11-25T03:51:16.194Z,1.40
2018-11-25T03:52:20.219Z,1.40
2018-11-25T03:53:24.364Z,1.30
2018-11-25T03:54:28.396Z,1.30
2018-11-25T03:55:32.593Z,1.30
2018-11-25T03:56:36.953Z,1.40
2018-11-25T03:57:41.055Z,1.40
2018-11-25T03:58:45.216Z,1.40
2018-11-25T03:59:49.279Z,1.30
2018-11-25T04:00:53.311Z,1.40
2018-11-25T04:01:57.389Z,1.40
2018-11-25T04:03:01.575Z,1.40
2018-11-25T04:04:06.059Z,1.40
2018-11-25T04:05:11.383Z,1.40
2018-11-25T04:06:15.401Z,1.40
2018-11-25T04:07:19.806Z,1.40
2018-11-25T04:08:24.000Z,1.50
2018-11-25T04:09:28.212Z,1.50
2018-11-25T04:10:32.362Z,1.50
2018-11-25T04:11:37.653Z,1.50
2018-11-25T04:12:41.641Z,1.50
2018-11-25T04:13:45.703Z,1.50
2018-11-25T04:14:50.013Z,1.50
2018-11-25T04:15:54.092Z,1.50
2018-11-25T04:16:59.188Z,1.50
2018-11-25T04:18:03.280Z,1.60
2018-11-25T04:19:07.404Z,1.60
2018-11-25T04:20:14.679Z,1.60
2018-11-25T04:21:18.787Z,1.50
2018-11-25T04:22:23.619Z,1.50
2018-11-25T04:23:27.660Z,1.60
2018-11-25T04:24:31.827Z,1.60
2018-11-25T04:25:36.544Z,1.60
2018-11-25T04:26:40.612Z,1.60
2018-11-25T04:27:44.590Z,1.60
2018-11-25T04:28:48.669Z,1.50
2018-11-25T04:29:52.813Z,1.60
2018-11-25T04:30:56.884Z,1.50
2018-11-25T04:32:01.018Z,1.60
2018-11-25T04:33:05.089Z,1.60
2018-11-25T04:34:09.136Z,1.60
2018-11-25T04:35:13.719Z,1.60
2018-11-25T04:36:17.684Z,1.60
2018-11-25T04:37:21.822Z,1.60
2018-11-25T04:38:25.787Z,1.70
2018-11-25T04:39:29.832Z,1.70
2018-11-25T04:40:33.929Z,1.70
2018-11-25T04:41:38.091Z,1.70
2018-11-25T04:42:42.103Z,1.80
2018-11-25T04:43:46.053Z,1.70
2018-11-25T04:44:50.072Z,1.80
2018-11-25T04:45:54.162Z,1.80
2018-11-25T04:46:58.240Z,1.70
2018-11-25T04:48:02.366Z,1.70
2018-11-25T04:49:06.821Z,1.70
2018-11-25T04:50:12.399Z,1.70
2018-11-25T04:51:16.511Z,1.70
2018-11-25T04:52:20.619Z,1.70
2018-11-25T04:53:24.684Z,1.70
2018-11-25T04:54:28.760Z,1.70
2018-11-25T04:55:32.874Z,1.70
2018-11-25T04:56:36.943Z,1.70
2018-11-25T04:57:42.137Z,1.80
2018-11-25T04:58:46.172Z,1.80
2018-11-25T04:59:50.339Z,1.80
2018-11-25T05:00:54.452Z,1.80
2018-11-25T05:01:58.449Z,1.80
2018-11-25T05:03:02.440Z,1.70
2018-11-25T05:04:06.880Z,1.80
2018-11-25T05:05:17.228Z,1.80
2018-11-25T05:06:21.183Z,1.80
2018-11-25T05:07:25.276Z,1.80
2018-11-25T05:08:29.315Z,1.80
2018-11-25T05:09:33.364Z,1.70
2018-11-25T05:10:37.416Z,1.80
2018-11-25T05:11:41.441Z,1.80
2018-11-25T05:12:45.492Z,1.70
2018-11-25T05:13:49.547Z,1.80
2018-11-25T05:14:53.608Z,1.80
2018-11-25T05:15:57.599Z,1.80
2018-11-25T05:17:01.611Z,1.80
2018-11-25T05:18:05.893Z,1.80
2018-11-25T05:19:09.842Z,1.80
2018-11-25T05:20:14.499Z,1.80
2018-11-25T05:21:18.516Z,1.80
2018-11-25T05:22:22.589Z,1.80
2018-11-25T05:23:26.543Z,1.80
2018-11-25T05:24:30.495Z,1.80
2018-11-25T05:25:34.627Z,1.80
2018-11-25T05:26:38.968Z,1.90
2018-11-25T05:27:43.296Z,1.90
2018-11-25T05:28:47.360Z,1.90
2018-11-25T05:29:51.387Z,1.90
2018-11-25T05:30:55.411Z,1.90
2018-11-25T05:31:59.528Z,1.90
2018-11-25T05:33:03.634Z,1.90
2018-11-25T05:34:07.772Z,1.90
2018-11-25T05:35:12.867Z,1.90
2018-11-25T05:36:17.048Z,2.00
2018-11-25T05:37:21.124Z,2.00
2018-11-25T05:38:25.203Z,2.00
2018-11-25T05:39:29.191Z,2.00
2018-11-25T05:40:33.146Z,2.00
2018-11-25T05:41:37.203Z,2.00
2018-11-25T05:42:41.310Z,2.00
2018-11-25T05:43:45.428Z,2.00
2018-11-25T05:44:49.424Z,2.00
2018-11-25T05:45:53.443Z,2.00
2018-11-25T05:46:58.641Z,2.00
2018-11-25T05:48:02.723Z,2.10
2018-11-25T05:49:07.021Z,2.10
2018-11-25T05:50:14.311Z,2.10
2018-11-25T05:51:18.332Z,2.10
2018-11-25T05:52:22.315Z,2.10
2018-11-25T05:53:26.331Z,2.10
2018-11-25T05:54:30.488Z,2.10
2018-11-25T05:55:34.571Z,2.20
2018-11-25T05:56:38.692Z,2.20
2018-11-25T05:57:42.875Z,2.20
2018-11-25T05:58:46.945Z,2.20
2018-11-25T05:59:51.089Z,2.20
2018-11-25T06:00:55.171Z,2.20
2018-11-25T06:01:59.283Z,2.20
2018-11-25T06:03:03.244Z,2.20
2018-11-25T06:04:07.440Z,2.20
2018-11-25T06:05:11.472Z,2.20
2018-11-25T06:06:15.611Z,2.20
2018-11-25T06:07:19.671Z,2.20
2018-11-25T06:08:23.684Z,2.20
2018-11-25T06:09:27.809Z,2.20
2018-11-25T06:10:31.725Z,2.20
2018-11-25T06:11:35.727Z,2.20
2018-11-25T06:12:39.888Z,2.20
2018-11-25T06:13:44.154Z,2.20
2018-11-25T06:14:48.179Z,2.20
2018-11-25T06:15:52.443Z,2.20
2018-11-25T06:16:56.523Z,2.20
2018-11-25T06:18:00.557Z,2.20
2018-11-25T06:19:04.527Z,2.30
2018-11-25T06:20:29.760Z,2.20
2018-11-25T06:21:33.812Z,2.20
2018-11-25T06:22:37.899Z,2.30
2018-11-25T06:23:41.855Z,2.20
2018-11-25T06:24:45.824Z,2.20
2018-11-25T06:25:49.883Z,2.20
2018-11-25T06:26:53.947Z,2.20
2018-11-25T06:27:58.188Z,2.30
2018-11-25T06:29:02.216Z,2.20
2018-11-25T06:30:10.203Z,2.20
2018-11-25T06:31:14.259Z,2.20
2018-11-25T06:32:18.801Z,2.20
2018-11-25T06:33:22.921Z,2.20
2018-11-25T06:34:29.830Z,2.20
2018-11-25T06:35:33.919Z,2.20
2018-11-25T06:36:38.101Z,2.20
2018-11-25T06:37:42.184Z,2.20
2018-11-25T06:38:46.139Z,2.20
2018-11-25T06:39:50.708Z,2.20
2018-11-25T06:40:55.040Z,2.20
2018-11-25T06:41:59.131Z,2.20
2018-11-25T06:43:03.151Z,2.10
2018-11-25T06:44:14.119Z,2.20
2018-11-25T06:45:20.558Z,2.30
2018-11-25T06:46:24.641Z,2.20
2018-11-25T06:47:28.734Z,2.30
2018-11-25T06:48:32.775Z,2.20
2018-11-25T06:49:36.864Z,2.20
2018-11-25T06:50:40.919Z,2.20
2018-11-25T06:51:46.880Z,2.20
2018-11-25T06:52:50.967Z,2.20
2018-11-25T06:53:55.103Z,2.20
2018-11-25T06:54:59.085Z,2.30
2018-11-25T06:56:03.115Z,2.30
2018-11-25T06:57:07.184Z,2.30
2018-11-25T06:58:11.223Z,2.30
2018-11-25T06:59:15.283Z,2.30
2018-11-25T07:00:23.376Z,2.30
2018-11-25T07:01:27.376Z,2.30
2018-11-25T07:02:31.413Z,2.30
2018-11-25T07:03:35.477Z,2.30
2018-11-25T07:04:39.587Z,2.40
2018-11-25T07:05:43.634Z,2.40
2018-11-25T07:06:47.823Z,2.40
2018-11-25T07:07:58.335Z,2.40
2018-11-25T07:09:02.650Z,2.40
2018-11-25T07:10:12.455Z,2.50
2018-11-25T07:11:16.681Z,2.50
2018-11-25T07:12:20.689Z,2.50
2018-11-25T07:13:24.700Z,2.50
2018-11-25T07:14:29.014Z,2.50
2018-11-25T07:15:33.107Z,2.50
2018-11-25T07:16:37.298Z,2.60
2018-11-25T07:17:41.307Z,2.60
2018-11-25T07:18:45.328Z,2.60
2018-11-25T07:19:49.409Z,2.60
2018-11-25T07:20:53.516Z,2.70
2018-11-25T07:21:57.571Z,2.70
2018-11-25T07:23:01.640Z,2.70
2018-11-25T07:24:05.677Z,2.70
2018-11-25T07:25:12.061Z,2.80
2018-11-25T07:26:22.781Z,2.80
2018-11-25T07:27:26.827Z,2.80
2018-11-25T07:28:30.828Z,2.80
2018-11-25T07:29:34.923Z,2.80
2018-11-25T07:30:38.945Z,2.90
2018-11-25T07:31:42.948Z,2.90
2018-11-25T07:32:47.143Z,2.90
2018-11-25T07:33:51.217Z,2.90
2018-11-25T07:34:55.287Z,2.90
2018-11-25T07:35:59.557Z,2.90
2018-11-25T07:37:03.588Z,2.90
2018-11-25T07:38:07.817Z,3.00
2018-11-25T07:39:11.875Z,3.00
2018-11-25T07:40:18.057Z,2.90
2018-11-25T07:41:22.271Z,2.90
2018-11-25T07:42:26.393Z,2.90
2018-11-25T07:43:30.489Z,3.00
2018-11-25T07:44:34.525Z,3.00
2018-11-25T07:45:38.490Z,3.00
2018-11-25T07:46:42.855Z,3.00
2018-11-25T07:47:46.971Z,3.00
2018-11-25T07:48:51.411Z,3.00
2018-11-25T07:49:55.419Z,3.10
2018-11-25T07:50:59.465Z,3.10
2018-11-25T07:52:03.616Z,3.10
2018-11-25T07:53:07.704Z,3.20
2018-11-25T07:54:11.785Z,3.20
2018-11-25T07:55:18.045Z,3.20
2018-11-25T07:56:22.078Z,3.30
2018-11-25T07:57:26.235Z,3.30
2018-11-25T07:58:30.251Z,3.30
2018-11-25T07:59:34.288Z,3.30
2018-11-25T08:00:38.297Z,3.30
2018-11-25T08:01:42.441Z,3.40
2018-11-25T08:02:46.565Z,3.40
2018-11-25T08:03:50.652Z,3.40
2018-11-25T08:04:54.773Z,3.40
2018-11-25T08:05:58.821Z,3.40
2018-11-25T08:07:03.065Z,3.40
2018-11-25T08:08:08.001Z,3.40
2018-11-25T08:09:12.067Z,3.40
2018-11-25T08:10:16.664Z,3.40
2018-11-25T08:11:20.701Z,3.40
2018-11-25T08:12:24.695Z,3.40
2018-11-25T08:14:37.907Z,3.50
2018-11-25T08:15:43.091Z,3.50
2018-11-25T08:16:47.267Z,3.50
2018-11-25T08:17:51.331Z,3.50
2018-11-25T08:18:55.432Z,3.50
2018-11-25T08:19:59.537Z,3.50
2018-11-25T08:21:04.017Z,3.50
2018-11-25T08:22:08.341Z,3.50
2018-11-25T08:23:13.563Z,3.50
2018-11-25T08:24:16.558Z,3.40
2018-11-25T08:25:21.461Z,3.40
2018-11-25T08:26:25.466Z,3.40
2018-11-25T08:27:29.489Z,3.40
2018-11-25T08:28:33.553Z,3.40
2018-11-25T08:29:37.591Z,3.40
2018-11-25T08:30:41.644Z,3.50
2018-11-25T08:31:45.666Z,3.50
2018-11-25T08:32:51.128Z,3.50
2018-11-25T08:33:55.176Z,3.50
2018-11-25T08:34:59.275Z,3.50
2018-11-25T08:36:03.336Z,3.50
2018-11-25T08:37:07.716Z,3.50
2018-11-25T08:38:11.785Z,3.50
2018-11-25T08:39:15.755Z,3.50
2018-11-25T08:40:21.054Z,3.50
2018-11-25T08:41:25.103Z,3.50
2018-11-25T08:42:29.056Z,3.50
2018-11-25T08:43:33.178Z,3.40
2018-11-25T08:44:37.356Z,3.50
2018-11-25T08:45:41.409Z,3.50
2018-11-25T08:46:45.490Z,3.50
2018-11-25T08:47:49.512Z,3.50
2018-11-25T08:48:53.564Z,3.50
2018-11-25T08:49:57.726Z,3.50
2018-11-25T08:51:01.851Z,3.50
2018-11-25T08:52:06.349Z,3.60
2018-11-25T08:53:11.284Z,3.60
2018-11-25T08:54:15.315Z,3.60
2018-11-25T08:55:26.457Z,3.60
2018-11-25T08:56:30.588Z,3.60
2018-11-25T08:57:34.713Z,3.60
2018-11-25T08:58:38.826Z,3.50
2018-11-25T08:59:42.918Z,3.50
2018-11-25T09:00:47.330Z,3.50
2018-11-25T09:01:51.461Z,3.50
2018-11-25T09:02:57.311Z,3.40
2018-11-25T09:04:01.365Z,3.50
2018-11-25T09:05:05.722Z,3.50
2018-11-25T09:06:09.813Z,3.40
2018-11-25T09:07:13.940Z,3.50
2018-11-25T09:08:18.070Z,3.50
2018-11-25T09:09:22.238Z,3.50
2018-11-25T09:10:26.352Z,3.40
2018-11-25T09:11:30.413Z,3.40
2018-11-25T09:12:34.546Z,3.40
2018-11-25T09:13:38.763Z,3.40
2018-11-25T09:14:42.850Z,3.50
2018-11-25T09:15:46.918Z,3.50
2018-11-25T09:16:51.068Z,3.50
2018-11-25T09:17:55.246Z,3.50
2018-11-25T09:18:59.418Z,3.50
2018-11-25T09:20:03.560Z,3.50
2018-11-25T09:21:07.728Z,3.50
2018-11-25T09:22:11.982Z,3.50
2018-11-25T09:23:16.063Z,3.50
2018-11-25T09:24:20.078Z,3.50
2018-11-25T09:25:30.497Z,3.50
2018-11-25T09:26:34.529Z,3.50
2018-11-25T09:27:38.605Z,3.60
2018-11-25T09:28:42.687Z,3.60
2018-11-25T09:29:48.613Z,3.60
2018-11-25T09:30:52.672Z,3.60
2018-11-25T09:31:56.832Z,3.60
2018-11-25T09:33:00.995Z,3.70
2018-11-25T09:34:10.043Z,3.70
2018-11-25T09:35:14.187Z,3.70
2018-11-25T09:36:18.259Z,3.70
2018-11-25T09:37:22.533Z,3.70
2018-11-25T09:38:26.692Z,3.80
2018-11-25T09:39:30.920Z,3.70
2018-11-25T09:40:34.974Z,3.80
2018-11-25T09:41:39.080Z,3.80
2018-11-25T09:42:43.178Z,3.80
2018-11-25T09:43:47.164Z,3.90
2018-11-25T09:44:51.349Z,3.90
2018-11-25T09:45:55.528Z,3.90
2018-11-25T09:46:59.604Z,4.00
2018-11-25T09:48:03.734Z,4.00
2018-11-25T09:49:07.924Z,4.10
2018-11-25T09:50:15.345Z,4.10
2018-11-25T09:51:19.466Z,4.10
2018-11-25T09:52:23.750Z,4.10
2018-11-25T09:53:27.893Z,4.10
2018-11-25T09:54:31.968Z,4.10
2018-11-25T09:55:36.058Z,4.20
2018-11-25T09:56:40.295Z,4.20
2018-11-25T09:57:46.897Z,4.30
2018-11-25T09:58:51.136Z,4.30
2018-11-25T09:59:55.244Z,4.40
2018-11-25T10:00:59.482Z,4.50
2018-11-25T10:02:03.604Z,4.50
2018-11-25T10:03:08.394Z,4.50
2018-11-25T10:04:12.478Z,4.60
2018-11-25T10:05:16.636Z,4.60
2018-11-25T10:06:20.727Z,4.70
2018-11-25T10:07:24.744Z,4.70
2018-11-25T10:08:29.658Z,4.80
2018-11-25T10:09:33.764Z,4.80
2018-11-25T10:10:37.829Z,4.90
2018-11-25T10:11:41.944Z,5.00
2018-11-25T10:12:46.059Z,5.20
2018-11-25T10:13:50.109Z,5.20
2018-11-25T10:14:54.175Z,5.50
2018-11-25T10:15:58.287Z,5.60
2018-11-25T10:17:02.411Z,5.70
2018-11-25T10:18:06.687Z,5.90
2018-11-25T10:19:10.798Z,5.90
2018-11-25T10:20:21.039Z,5.90
2018-11-25T10:21:25.110Z,5.90
2018-11-25T10:22:29.212Z,5.90
2018-11-25T10:23:33.332Z,6.10
2018-11-25T10:24:37.362Z,6.20
2018-11-25T10:25:41.416Z,6.30
2018-11-25T10:26:45.526Z,6.40
2018-11-25T10:27:49.682Z,6.40
2018-11-25T10:28:53.762Z,6.50
2018-11-25T10:29:57.819Z,6.40
2018-11-25T10:31:01.903Z,6.30
2018-11-25T10:32:06.395Z,6.20
2018-11-25T10:33:10.886Z,6.20
2018-11-25T10:34:15.078Z,6.20
2018-11-25T10:35:19.384Z,6.10
2018-11-25T10:36:23.664Z,6.20
2018-11-25T10:37:27.824Z,6.20
2018-11-25T10:38:32.107Z,6.30
2018-11-25T10:39:36.343Z,6.30
2018-11-25T10:40:40.444Z,6.30
2018-11-25T10:41:44.531Z,6.40
2018-11-25T10:42:48.707Z,6.30
2018-11-25T10:43:52.907Z,6.20
2018-11-25T10:44:57.054Z,6.20
2018-11-25T10:46:01.310Z,6.30
2018-11-25T10:47:05.536Z,6.30
2018-11-25T10:48:09.765Z,6.30
2018-11-25T10:49:13.971Z,6.10
2018-11-25T10:50:19.027Z,6.30
2018-11-25T10:51:23.084Z,6.20
2018-11-25T10:52:27.346Z,6.20
2018-11-25T10:53:31.488Z,6.10
2018-11-25T10:54:35.736Z,6.20
2018-11-25T10:55:39.923Z,6.20
2018-11-25T10:56:44.072Z,6.30
2018-11-25T10:57:49.227Z,6.30
2018-11-25T10:58:54.086Z,6.30
2018-11-25T10:59:58.263Z,6.20
2018-11-25T11:01:07.362Z,6.30
2018-11-25T11:02:16.713Z,6.20
2018-11-25T11:03:25.950Z,6.20
2018-11-25T11:04:35.225Z,6.20
2018-11-25T11:06:47.607Z,6.20
2018-11-25T11:07:51.732Z,6.10
2018-11-25T11:09:00.800Z,6.10
2018-11-25T11:10:05.300Z,6.00
2018-11-25T11:11:09.651Z,6.00
2018-11-25T11:12:14.017Z,5.90
2018-11-25T11:13:22.679Z,5.90
2018-11-25T11:17:05.740Z,5.90
2018-11-25T11:18:10.077Z,5.90
2018-11-25T11:19:18.451Z,5.90
2018-11-25T11:20:22.727Z,5.70
2018-11-25T11:21:26.888Z,5.60
2018-11-25T11:22:33.822Z,5.60
2018-11-25T11:23:38.047Z,5.70
2018-11-25T11:24:42.270Z,5.70
2018-11-25T11:25:46.619Z,5.70
2018-11-25T11:26:50.672Z,5.70
2018-11-25T11:27:54.768Z,5.80
2018-11-25T11:28:59.367Z,5.80
2018-11-25T11:30:03.610Z,5.70
2018-11-25T11:31:13.319Z,5.70
2018-11-25T11:32:12.248Z,5.70
2018-11-25T11:33:16.384Z,5.60
2018-11-25T11:34:21.442Z,5.50
2018-11-25T11:35:25.516Z,5.50
2018-11-25T11:36:29.867Z,5.50
2018-11-25T11:37:34.498Z,5.50
2018-11-25T11:38:39.232Z,5.50
2018-11-25T11:39:43.271Z,5.60
2018-11-25T11:40:47.444Z,5.60
2018-11-25T11:41:51.902Z,5.60
2018-11-25T11:42:56.450Z,5.60
2018-11-25T11:44:00.528Z,5.60
2018-11-25T11:45:05.386Z,5.60
2018-11-25T11:46:09.468Z,5.60
2018-11-25T11:47:13.554Z,5.60
2018-11-25T11:48:17.670Z,5.60
2018-11-25T11:49:21.807Z,5.60
2018-11-25T11:50:26.163Z,5.70
2018-11-25T11:51:30.198Z,5.70
2018-11-25T11:52:34.248Z,5.70
2018-11-25T11:53:38.413Z,5.70
2018-11-25T11:54:42.565Z,5.70
2018-11-25T11:55:46.733Z,5.70
2018-11-25T11:56:55.861Z,5.70
2018-11-25T11:58:00.082Z,5.60
2018-11-25T11:59:04.224Z,5.60
2018-11-25T12:00:17.616Z,5.60
2018-11-25T12:01:21.853Z,5.60
2018-11-25T12:02:31.490Z,5.60
2018-11-25T12:03:30.858Z,5.60
2018-11-25T12:04:35.100Z,5.60
2018-11-25T12:05:39.791Z,5.60
2018-11-25T12:06:43.485Z,5.50
2018-11-25T12:07:48.184Z,5.60
2018-11-25T12:08:52.338Z,5.60
2018-11-25T12:09:56.458Z,5.60
2018-11-25T12:11:00.784Z,5.60
2018-11-25T12:12:05.043Z,5.70
2018-11-25T12:13:09.276Z,5.70
2018-11-25T12:14:13.461Z,5.80
2018-11-25T12:15:33.370Z,5.70
2018-11-25T12:16:37.471Z,5.70
2018-11-25T12:17:41.603Z,5.80
2018-11-25T12:18:45.789Z,5.80
2018-11-25T12:19:50.018Z,6.00
2018-11-25T12:20:54.182Z,5.90
2018-11-25T12:21:58.515Z,6.00
2018-11-25T12:23:02.554Z,6.00
2018-11-25T12:24:06.836Z,6.00
2018-11-25T12:25:12.635Z,6.00
2018-11-25T12:26:16.710Z,6.00
2018-11-25T12:27:20.715Z,6.10
2018-11-25T12:28:24.867Z,6.10
2018-11-25T12:29:28.881Z,6.10
2018-11-25T12:30:32.923Z,6.00
2018-11-25T12:31:37.020Z,6.10
2018-11-25T12:32:41.477Z,6.00
2018-11-25T12:33:46.658Z,6.00
2018-11-25T12:34:50.801Z,6.10
2018-11-25T12:35:57.746Z,6.10
2018-11-25T12:37:01.822Z,6.00
2018-11-25T12:38:06.641Z,6.10
2018-11-25T12:39:10.784Z,6.10
2018-11-25T12:40:16.224Z,6.20
2018-11-25T12:41:20.280Z,6.30
2018-11-25T12:42:24.394Z,6.30
2018-11-25T12:43:28.511Z,6.40
2018-11-25T12:44:32.750Z,6.30
2018-11-25T12:45:36.926Z,6.30
2018-11-25T12:46:41.031Z,6.30
2018-11-25T12:47:45.151Z,6.30
2018-11-25T12:48:49.233Z,6.30
2018-11-25T12:49:53.433Z,6.30
2018-11-25T12:50:57.564Z,6.40
2018-11-25T12:52:01.549Z,6.40
2018-11-25T12:53:05.874Z,6.50
2018-11-25T12:54:10.028Z,6.50
2018-11-25T12:55:18.270Z,6.50
2018-11-25T12:56:22.389Z,6.60
2018-11-25T12:57:26.472Z,6.60
2018-11-25T12:58:31.825Z,6.50
2018-11-25T12:59:34.903Z,6.50
2018-11-25T13:00:40.633Z,6.50
2018-11-25T13:01:44.868Z,6.60
2018-11-25T13:02:49.067Z,6.70
2018-11-25T13:03:53.282Z,6.80
2018-11-25T13:04:57.319Z,6.80
2018-11-25T13:06:01.502Z,6.90
2018-11-25T13:07:06.287Z,6.90
2018-11-25T13:08:11.508Z,6.90
2018-11-25T13:09:15.629Z,6.90
2018-11-25T13:10:19.847Z,7.00
2018-11-25T13:11:23.996Z,7.00
2018-11-25T13:12:28.044Z,7.00
2018-11-25T13:13:32.305Z,6.90
2018-11-25T13:14:36.374Z,6.80
2018-11-25T13:15:40.588Z,6.80
2018-11-25T13:16:45.711Z,6.80
2018-11-25T13:17:49.808Z,6.80
2018-11-25T13:18:53.931Z,6.70
2018-11-25T13:19:58.175Z,6.60
2018-11-25T13:21:02.351Z,6.60
2018-11-25T13:22:06.700Z,6.50
2018-11-25T13:23:10.874Z,6.50
2018-11-25T13:24:15.116Z,6.50
2018-11-25T13:25:19.313Z,6.50
2018-11-25T13:26:23.331Z,6.40
2018-11-25T13:27:27.402Z,6.30
2018-11-25T13:28:31.489Z,6.30
2018-11-25T13:29:35.640Z,6.30
2018-11-25T13:30:39.693Z,6.20
2018-11-25T13:31:44.692Z,6.20
2018-11-25T13:32:49.540Z,6.10
2018-11-25T13:33:53.701Z,6.10
2018-11-25T13:35:00.864Z,6.00
2018-11-25T13:36:06.134Z,6.00
2018-11-25T13:37:10.340Z,5.90
2018-11-25T13:38:14.617Z,5.80
2018-11-25T13:39:18.812Z,5.80
2018-11-25T13:40:22.881Z,5.80
2018-11-25T13:41:27.011Z,5.70
2018-11-25T13:42:31.164Z,5.70
2018-11-25T13:43:35.329Z,5.70
2018-11-25T13:44:44.549Z,5.60
2018-11-25T13:45:48.603Z,5.60
2018-11-25T13:46:52.702Z,5.60
2018-11-25T13:47:56.810Z,5.60
2018-11-25T13:49:00.888Z,5.50
2018-11-25T13:50:05.093Z,5.50
2018-11-25T13:51:09.782Z,5.50
2018-11-25T13:52:13.939Z,5.50
2018-11-25T13:53:18.120Z,5.40
2018-11-25T13:54:22.154Z,5.40
2018-11-25T13:55:27.673Z,5.50
2018-11-25T13:56:31.971Z,5.40
2018-11-25T13:57:36.131Z,5.40
2018-11-25T13:58:40.347Z,5.40
2018-11-25T13:59:44.507Z,5.40
2018-11-25T14:00:50.932Z,5.40
2018-11-25T14:01:55.143Z,5.30
2018-11-25T14:02:59.330Z,5.30
2018-11-25T14:04:03.447Z,5.30
2018-11-25T14:05:08.870Z,5.30
2018-11-25T14:06:14.550Z,5.30
2018-11-25T14:07:18.847Z,5.30
2018-11-25T14:08:23.058Z,5.30
2018-11-25T14:09:28.382Z,5.20
2018-11-25T14:10:33.932Z,5.20
2018-11-25T14:11:38.176Z,5.20
2018-11-25T14:12:42.320Z,5.20
2018-11-25T14:13:46.342Z,5.20
2018-11-25T14:14:55.608Z,5.20
2018-11-25T14:16:00.828Z,5.20
2018-11-25T14:17:04.953Z,5.10
2018-11-25T14:18:09.138Z,5.10
2018-11-25T14:19:13.257Z,5.10
2018-11-25T14:20:17.370Z,5.10
2018-11-25T14:21:21.644Z,5.10
2018-11-25T14:22:26.087Z,5.10
2018-11-25T14:23:30.259Z,5.10